Cdry Blue — ICOB — position and weather

sailwx.info

Track history (hours):
 
Tides and Currents Weather Stations Pressure Air Temp Water Temp Dewpoint Dewpoint Depression Visibility Wind Speed Wind Dir Waves Ship Positions

Cdry Blue

Last reported at 2014-Oct-22 18:26 UTC. Time now 2014-Oct-23 14:30 UTC.
Position N 43°24' E 003°43'.

Length 108 m; draft 4.6 m.

Type: Cargo ship. MMSI: 247289300.

Date/timePositionNaut miles runAvg speedWind from/ knotsBaromVisibWave heightAir tempDewpointWater temp
2014-Oct-22 18:26N 43°24' E 003°43'0 0.0
2014-Oct-22 16:26N 43°24' E 003°43'0 0.0
2014-Oct-22 15:26N 43°24' E 003°43'0 0.0
2014-Oct-22 13:23N 43°24' E 003°43'0 0.0
2014-Oct-22 11:05N 43°24' E 003°43'0 0.0
2014-Oct-22 09:26N 43°24' E 003°43'0 0.0
2014-Oct-22 08:21N 43°24' E 003°43'0 0.0
2014-Oct-22 07:32N 43°24' E 003°43'0 0.0
2014-Oct-21 18:20N 43°24' E 003°43'0 0.0
2014-Oct-21 17:08N 43°24' E 003°43'0 0.0
2014-Oct-21 16:32N 43°24' E 003°43'0 0.0
2014-Oct-21 14:32N 43°24' E 003°43'0 0.0
2014-Oct-21 11:33N 43°24' E 003°43'0 0.0
2014-Oct-21 09:32N 43°24' E 003°43'0 0.0
2014-Oct-20 19:26N 43°24' E 003°43'0 0.0
2014-Oct-18 21:20N 43°24' E 003°43'0 0.0
2014-Oct-18 20:29N 43°24' E 003°43'0 0.0
2014-Oct-18 16:08N 43°24' E 003°43'0 0.0
2014-Oct-17 22:32N 43°24' E 003°43'0 0.0
2014-Oct-17 21:32N 43°24' E 003°43'0 0.0
2014-Oct-17 20:32N 43°24' E 003°43'3 3.5
2014-Oct-17 19:33N 43°22' E 003°47'7 5.7
2014-Oct-17 18:15N 43°15' E 003°49'8 9.2
2014-Oct-17 17:25N 43°08' E 003°46'1613.9
2014-Oct-17 16:17N 42°53' E 003°39'1013.9
2014-Oct-17 15:32N 42°43' E 003°35'1513.9
2014-Oct-17 14:29N 42°29' E 003°30'1313.0
2014-Oct-17 13:31N 42°17' E 003°25'1712.3
2014-Oct-17 12:06N 41°60' E 003°23'1912.1
2014-Oct-17 10:31N 41°45' E 003°07'1212.4
2014-Oct-17 09:32N 41°35' E 002°56'1212.3
2014-Oct-17 08:33N 41°26' E 002°46'1212.3
2014-Oct-17 07:33N 41°19' E 002°33'1312.7
2014-Oct-17 06:33N 41°11' E 002°20'1312.7
2014-Oct-17 05:33N 41°03' E 002°07'1212.6
2014-Oct-17 04:33N 40°55' E 001°54'1312.9
2014-Oct-17 03:33N 40°46' E 001°41'1812.9
2014-Oct-17 02:10N 40°35' E 001°23'812.9
2014-Oct-17 01:33N 40°30' E 001°14'1312.8
2014-Oct-17 00:33N 40°22' E 001°01'6513.0
2014-Oct-16 19:33N 39°41' W 000°04'7 3.2
2014-Oct-16 17:22N 39°39' W 000°13'0 0.0
2014-Oct-16 03:33N 39°39' W 000°13'39 9.7
2014-Oct-15 23:33N 39°60' E 000°30'1211.7
2014-Oct-15 22:33N 40°06' E 000°42'1111.2
2014-Oct-15 21:33N 40°13' E 000°54'1111.1
2014-Oct-15 20:34N 40°20' E 001°05'1111.1
2014-Oct-15 19:33N 40°26' E 001°18'1111.3
2014-Oct-15 18:33N 40°32' E 001°30'1111.2
2014-Oct-15 17:33N 40°39' E 001°42'1111.4
2014-Oct-15 16:33N 40°46' E 001°53'1110.7
2014-Oct-15 15:33N 40°55' E 002°02'1111.0
2014-Oct-15 14:33N 41°05' E 002°05'1110.8
2014-Oct-15 13:33N 41°16' E 002°10'5 3.8
2014-Oct-15 12:14N 41°21' E 002°09'0 0.0
2014-Oct-15 10:20N 41°21' E 002°09'18 1.0
2014-Oct-14 16:32N 41°09' E 002°28'1111.7
2014-Oct-14 15:34N 41°04' E 002°41'1211.6
2014-Oct-14 14:33N 40°59' E 002°55'1111.4
2014-Oct-14 13:33N 40°53' E 003°08'1110.8
2014-Oct-14 12:33N 40°48' E 003°21'26311.0
2014-Oct-13 12:33N 38°42' E 008°22'1111.0
2014-Oct-13 11:33N 38°40' E 008°35'1111.0
2014-Oct-13 10:33N 38°39' E 008°49'1111.2
2014-Oct-13 09:33N 38°38' E 009°03'1211.5
2014-Oct-13 08:32N 38°37' E 009°18'5011.4
2014-Oct-13 04:08N 38°34' E 010°22'  
Track history (hours):
 
Tides and Currents Weather Stations Pressure Air Temp Water Temp Dewpoint Dewpoint Depression Visibility Wind Speed Wind Dir Waves Ship Positions

Cdry Blue

Last reported at 2014-Oct-22 18:26 UTC. Time now 2014-Oct-23 14:30 UTC.
Position N 43°24' E 003°43'.

Length 108 m; draft 4.6 m.

Type: Cargo ship. MMSI: 247289300.

Date/timePositionNaut miles runAvg speedWind from/ knotsBaromVisibWave heightAir tempDewpointWater temp
2014-Oct-22 18:26N 43°24' E 003°43'0 0.0
2014-Oct-22 16:26N 43°24' E 003°43'0 0.0
2014-Oct-22 15:26N 43°24' E 003°43'0 0.0
2014-Oct-22 13:23N 43°24' E 003°43'0 0.0
2014-Oct-22 11:05N 43°24' E 003°43'0 0.0
2014-Oct-22 09:26N 43°24' E 003°43'0 0.0
2014-Oct-22 08:21N 43°24' E 003°43'0 0.0
2014-Oct-22 07:32N 43°24' E 003°43'0 0.0
2014-Oct-21 18:20N 43°24' E 003°43'0 0.0
2014-Oct-21 17:08N 43°24' E 003°43'0 0.0
2014-Oct-21 16:32N 43°24' E 003°43'0 0.0
2014-Oct-21 14:32N 43°24' E 003°43'0 0.0
2014-Oct-21 11:33N 43°24' E 003°43'0 0.0
2014-Oct-21 09:32N 43°24' E 003°43'0 0.0
2014-Oct-20 19:26N 43°24' E 003°43'0 0.0
2014-Oct-18 21:20N 43°24' E 003°43'0 0.0
2014-Oct-18 20:29N 43°24' E 003°43'0 0.0
2014-Oct-18 16:08N 43°24' E 003°43'0 0.0
2014-Oct-17 22:32N 43°24' E 003°43'0 0.0
2014-Oct-17 21:32N 43°24' E 003°43'0 0.0
2014-Oct-17 20:32N 43°24' E 003°43'3 3.5
2014-Oct-17 19:33N 43°22' E 003°47'7 5.7
2014-Oct-17 18:15N 43°15' E 003°49'8 9.2
2014-Oct-17 17:25N 43°08' E 003°46'1613.9
2014-Oct-17 16:17N 42°53' E 003°39'1013.9
2014-Oct-17 15:32N 42°43' E 003°35'1513.9
2014-Oct-17 14:29N 42°29' E 003°30'1313.0
2014-Oct-17 13:31N 42°17' E 003°25'1712.3
2014-Oct-17 12:06N 41°60' E 003°23'1912.1
2014-Oct-17 10:31N 41°45' E 003°07'1212.4
2014-Oct-17 09:32N 41°35' E 002°56'1212.3
2014-Oct-17 08:33N 41°26' E 002°46'1212.3
2014-Oct-17 07:33N 41°19' E 002°33'1312.7
2014-Oct-17 06:33N 41°11' E 002°20'1312.7
2014-Oct-17 05:33N 41°03' E 002°07'1212.6
2014-Oct-17 04:33N 40°55' E 001°54'1312.9
2014-Oct-17 03:33N 40°46' E 001°41'1812.9
2014-Oct-17 02:10N 40°35' E 001°23'812.9
2014-Oct-17 01:33N 40°30' E 001°14'1312.8
2014-Oct-17 00:33N 40°22' E 001°01'6513.0
2014-Oct-16 19:33N 39°41' W 000°04'7 3.2
2014-Oct-16 17:22N 39°39' W 000°13'0 0.0
2014-Oct-16 03:33N 39°39' W 000°13'39 9.7
2014-Oct-15 23:33N 39°60' E 000°30'1211.7
2014-Oct-15 22:33N 40°06' E 000°42'1111.2
2014-Oct-15 21:33N 40°13' E 000°54'1111.1
2014-Oct-15 20:34N 40°20' E 001°05'1111.1
2014-Oct-15 19:33N 40°26' E 001°18'1111.3
2014-Oct-15 18:33N 40°32' E 001°30'1111.2
2014-Oct-15 17:33N 40°39' E 001°42'1111.4
2014-Oct-15 16:33N 40°46' E 001°53'1110.7
2014-Oct-15 15:33N 40°55' E 002°02'1111.0
2014-Oct-15 14:33N 41°05' E 002°05'1110.8
2014-Oct-15 13:33N 41°16' E 002°10'5 3.8
2014-Oct-15 12:14N 41°21' E 002°09'0 0.0
2014-Oct-15 10:20N 41°21' E 002°09'18 1.0
2014-Oct-14 16:32N 41°09' E 002°28'1111.7
2014-Oct-14 15:34N 41°04' E 002°41'1211.6
2014-Oct-14 14:33N 40°59' E 002°55'1111.4
2014-Oct-14 13:33N 40°53' E 003°08'1110.8
2014-Oct-14 12:33N 40°48' E 003°21'26311.0
2014-Oct-13 12:33N 38°42' E 008°22'1111.0
2014-Oct-13 11:33N 38°40' E 008°35'1111.0
2014-Oct-13 10:33N 38°39' E 008°49'1111.2
2014-Oct-13 09:33N 38°38' E 009°03'1211.5
2014-Oct-13 08:32N 38°37' E 009°18'5011.4
2014-Oct-13 04:08N 38°34' E 010°22'  

Dump ship's entire track history